createdAt,value
2017-01-23T00:00:27.029Z,276
2017-01-23T00:01:27.154Z,276
2017-01-23T00:02:27.265Z,276
2017-01-23T00:03:27.386Z,276
2017-01-23T00:04:27.540Z,275
2017-01-23T00:05:27.718Z,276
2017-01-23T00:06:27.864Z,276
2017-01-23T00:07:28.004Z,276
2017-01-23T00:08:28.156Z,276
2017-01-23T00:09:28.277Z,276
2017-01-23T00:10:28.484Z,276
2017-01-23T00:11:28.728Z,275
2017-01-23T00:12:28.935Z,276
2017-01-23T00:13:29.047Z,276
2017-01-23T00:14:29.214Z,276
2017-01-23T00:15:29.454Z,276
2017-01-23T00:16:29.539Z,276
2017-01-23T00:17:29.664Z,276
2017-01-23T00:18:29.756Z,276
2017-01-23T00:19:29.907Z,276
2017-01-23T00:20:30.126Z,276
2017-01-23T00:21:30.202Z,276
2017-01-23T00:22:30.379Z,276
2017-01-23T00:23:30.554Z,276
2017-01-23T00:24:30.682Z,276
2017-01-23T00:25:30.777Z,275
2017-01-23T00:26:31.105Z,276
2017-01-23T00:27:31.272Z,276
2017-01-23T00:28:31.398Z,276
2017-01-23T00:29:31.517Z,276
2017-01-23T00:30:31.667Z,276
2017-01-23T00:31:31.910Z,276
2017-01-23T00:32:32.083Z,276
2017-01-23T00:33:32.259Z,276
2017-01-23T00:34:32.383Z,276
2017-01-23T00:35:32.529Z,276
2017-01-23T00:36:32.628Z,276
2017-01-23T00:37:32.835Z,276
2017-01-23T00:38:32.951Z,276
2017-01-23T00:39:33.096Z,275
2017-01-23T00:40:33.284Z,276
2017-01-23T00:41:33.412Z,276
2017-01-23T00:42:33.647Z,276
2017-01-23T00:43:33.915Z,276
2017-01-23T00:44:34.116Z,276
2017-01-23T00:45:34.305Z,276
2017-01-23T00:46:34.481Z,275
2017-01-23T00:47:34.633Z,276
2017-01-23T00:48:34.771Z,276
2017-01-23T00:49:35.016Z,276
2017-01-23T00:50:35.102Z,276
2017-01-23T00:51:35.267Z,275
2017-01-23T00:52:35.474Z,276
2017-01-23T00:53:35.664Z,276
2017-01-23T00:54:35.767Z,276
2017-01-23T00:55:35.868Z,275
2017-01-23T00:56:35.961Z,276
2017-01-23T00:57:36.074Z,276
2017-01-23T00:58:36.175Z,276
2017-01-23T00:59:36.295Z,276
2017-01-23T01:00:36.493Z,275
2017-01-23T01:01:36.792Z,275
2017-01-23T01:02:36.887Z,276
2017-01-23T01:03:36.998Z,276
2017-01-23T01:04:37.080Z,276
2017-01-23T01:05:37.172Z,276
2017-01-23T01:06:37.448Z,276
2017-01-23T01:07:37.646Z,275
2017-01-23T01:08:37.838Z,276
2017-01-23T01:09:37.996Z,275
2017-01-23T01:10:38.170Z,276
2017-01-23T01:11:38.397Z,275
2017-01-23T01:12:38.595Z,276
2017-01-23T01:13:38.723Z,276
2017-01-23T01:14:38.861Z,276
2017-01-23T01:15:39.109Z,276
2017-01-23T01:16:39.277Z,276
2017-01-23T01:17:39.406Z,276
2017-01-23T01:18:39.481Z,276
2017-01-23T01:19:39.623Z,276
2017-01-23T01:20:39.820Z,276
2017-01-23T01:21:40.833Z,276
2017-01-23T01:22:40.042Z,276
2017-01-23T01:23:40.175Z,276
2017-01-23T01:24:40.322Z,276
2017-01-23T01:25:40.404Z,275
2017-01-23T01:26:40.624Z,275
2017-01-23T01:27:40.766Z,276
2017-01-23T01:28:41.051Z,276
2017-01-23T01:29:41.218Z,276
2017-01-23T01:30:41.315Z,275
2017-01-23T01:31:41.371Z,276
2017-01-23T01:32:41.491Z,276
2017-01-23T01:33:41.615Z,276
2017-01-23T01:34:41.817Z,276
2017-01-23T01:35:41.909Z,276
2017-01-23T01:36:42.079Z,275
2017-01-23T01:37:42.155Z,276
2017-01-23T01:38:42.304Z,275
2017-01-23T01:39:42.531Z,275
2017-01-23T01:40:42.704Z,276
2017-01-23T01:41:42.851Z,276
2017-01-23T01:42:42.959Z,276
2017-01-23T01:43:43.229Z,275
2017-01-23T01:44:43.306Z,276
2017-01-23T01:45:43.475Z,275
2017-01-23T01:46:43.656Z,276
2017-01-23T01:47:43.787Z,276
2017-01-23T01:48:43.843Z,275
2017-01-23T01:49:44.011Z,276
2017-01-23T01:50:44.156Z,276
2017-01-23T01:51:44.253Z,276
2017-01-23T01:52:44.447Z,276
2017-01-23T01:53:44.641Z,276
2017-01-23T01:54:44.774Z,276
2017-01-23T01:55:44.953Z,276
2017-01-23T01:56:45.102Z,275
2017-01-23T01:57:45.235Z,276
2017-01-23T01:58:45.379Z,276
2017-01-23T01:59:45.508Z,276
2017-01-23T02:00:45.726Z,275
2017-01-23T02:01:46.070Z,276
2017-01-23T02:02:46.160Z,276
2017-01-23T02:03:46.263Z,276
2017-01-23T02:04:46.475Z,276
2017-01-23T02:05:46.612Z,275
2017-01-23T02:06:46.815Z,276
2017-01-23T02:07:48.826Z,275
2017-01-23T02:08:47.274Z,276
2017-01-23T02:09:47.505Z,275
2017-01-23T02:10:47.686Z,275
2017-01-23T02:11:47.934Z,276
2017-01-23T02:12:47.987Z,276
2017-01-23T02:13:48.233Z,275
2017-01-23T02:14:48.396Z,276
2017-01-23T02:15:48.533Z,276
2017-01-23T02:16:48.614Z,275
2017-01-23T02:17:48.996Z,276
2017-01-23T02:18:49.143Z,276
2017-01-23T02:19:49.272Z,275
2017-01-23T02:20:49.383Z,275
2017-01-23T02:21:49.560Z,276
2017-01-23T02:22:49.746Z,275
2017-01-23T02:23:49.901Z,275
2017-01-23T02:24:49.998Z,276
2017-01-23T02:25:50.175Z,276
2017-01-23T02:26:50.304Z,275
2017-01-23T02:27:50.444Z,276
2017-01-23T02:28:50.615Z,275
2017-01-23T02:29:50.786Z,275
2017-01-23T02:30:50.966Z,275
2017-01-23T02:31:51.157Z,276
2017-01-23T02:32:51.260Z,275
2017-01-23T02:33:51.988Z,276
2017-01-23T02:34:52.155Z,276
2017-01-23T02:35:52.217Z,276
2017-01-23T02:36:52.332Z,275
2017-01-23T02:37:52.530Z,275
2017-01-23T02:38:52.710Z,276
2017-01-23T02:39:52.891Z,276
2017-01-23T02:40:53.073Z,275
2017-01-23T02:41:53.247Z,275
2017-01-23T02:42:53.419Z,276
2017-01-23T02:43:53.576Z,276
2017-01-23T02:44:53.692Z,276
2017-01-23T02:45:53.815Z,276
2017-01-23T02:46:54.011Z,275
2017-01-23T02:47:54.146Z,276
2017-01-23T02:48:54.276Z,276
2017-01-23T02:49:54.405Z,276
2017-01-23T02:50:54.618Z,276
2017-01-23T02:51:54.761Z,276
2017-01-23T02:52:54.948Z,275
2017-01-23T02:53:54.999Z,275
2017-01-23T02:54:55.211Z,276
2017-01-23T02:55:55.347Z,276
2017-01-23T02:56:55.467Z,276
2017-01-23T02:57:55.604Z,276
2017-01-23T02:58:55.714Z,276
2017-01-23T02:59:55.892Z,276
2017-01-23T03:00:56.119Z,276
2017-01-23T03:01:56.380Z,276
2017-01-23T03:02:56.430Z,276
2017-01-23T03:03:56.631Z,275
2017-01-23T03:04:56.733Z,276
2017-01-23T03:05:56.906Z,276
2017-01-23T03:06:57.060Z,276
2017-01-23T03:07:57.207Z,276
2017-01-23T03:08:57.321Z,276
2017-01-23T03:09:57.483Z,276
2017-01-23T03:10:57.709Z,276
2017-01-23T03:11:57.855Z,276
2017-01-23T03:12:58.069Z,276
2017-01-23T03:13:58.284Z,276
2017-01-23T03:14:58.432Z,276
2017-01-23T03:15:58.535Z,275
2017-01-23T03:16:58.713Z,276
2017-01-23T03:17:58.915Z,276
2017-01-23T03:18:59.030Z,276
2017-01-23T03:19:59.156Z,276
2017-01-23T03:20:59.275Z,276
2017-01-23T03:21:59.467Z,275
2017-01-23T03:22:59.622Z,275
2017-01-23T03:23:59.840Z,275
2017-01-23T03:24:59.976Z,276
2017-01-23T03:26:00.189Z,276
2017-01-23T03:27:00.386Z,275
2017-01-23T03:28:01.385Z,276
2017-01-23T03:29:00.677Z,276
2017-01-23T03:30:00.722Z,276
2017-01-23T03:31:00.897Z,276
2017-01-23T03:32:01.055Z,276
2017-01-23T03:33:01.262Z,276
2017-01-23T03:34:01.526Z,276
2017-01-23T03:35:01.748Z,275
2017-01-23T03:36:01.966Z,276
2017-01-23T03:37:02.055Z,276
2017-01-23T03:38:02.216Z,275
2017-01-23T03:39:02.351Z,276
2017-01-23T03:40:02.559Z,275
2017-01-23T03:41:02.717Z,276
2017-01-23T03:42:02.789Z,276
2017-01-23T03:43:03.043Z,276
2017-01-23T03:44:03.211Z,276
2017-01-23T03:45:03.346Z,276
2017-01-23T03:46:03.524Z,276
2017-01-23T03:47:03.589Z,276
2017-01-23T03:48:03.684Z,276
2017-01-23T03:49:03.859Z,276
2017-01-23T03:50:04.043Z,276
2017-01-23T03:51:04.182Z,276
2017-01-23T03:52:04.423Z,275
2017-01-23T03:53:04.499Z,276
2017-01-23T03:54:04.855Z,276
2017-01-23T03:55:05.039Z,276
2017-01-23T03:56:05.136Z,276
2017-01-23T03:57:05.303Z,275
2017-01-23T03:58:05.343Z,276
2017-01-23T03:59:05.487Z,276
2017-01-23T04:00:05.637Z,276
2017-01-23T04:01:05.809Z,276
2017-01-23T04:02:05.867Z,276
2017-01-23T04:03:05.952Z,276
2017-01-23T04:04:06.100Z,276
2017-01-23T04:05:06.206Z,276
2017-01-23T04:06:06.335Z,276
2017-01-23T04:07:06.422Z,276
2017-01-23T04:08:06.676Z,276
2017-01-23T04:09:06.859Z,276
2017-01-23T04:10:07.009Z,276
2017-01-23T04:11:07.245Z,276
2017-01-23T04:12:07.319Z,276
2017-01-23T04:13:07.452Z,276
2017-01-23T04:14:07.600Z,276
2017-01-23T04:15:07.744Z,276
2017-01-23T04:16:07.967Z,276
2017-01-23T04:17:08.097Z,276
2017-01-23T04:18:08.240Z,275
2017-01-23T04:19:08.427Z,276
2017-01-23T04:20:08.491Z,276
2017-01-23T04:21:08.623Z,276
2017-01-23T04:22:08.840Z,275
2017-01-23T04:23:08.939Z,276
2017-01-23T04:24:09.170Z,276
2017-01-23T04:25:09.282Z,276
2017-01-23T04:26:09.497Z,276
2017-01-23T04:27:09.707Z,276
2017-01-23T04:28:09.843Z,276
2017-01-23T04:29:09.976Z,276
2017-01-23T04:30:10.133Z,276
2017-01-23T04:31:10.331Z,276
2017-01-23T04:32:10.457Z,275
2017-01-23T04:33:10.660Z,276
2017-01-23T04:34:10.789Z,275
2017-01-23T04:35:10.972Z,275
2017-01-23T04:36:11.155Z,276
2017-01-23T04:37:11.311Z,276
2017-01-23T04:38:11.447Z,276
2017-01-23T04:39:11.657Z,275
2017-01-23T04:40:11.813Z,276
2017-01-23T04:41:11.926Z,276
2017-01-23T04:42:12.100Z,275
2017-01-23T04:43:12.342Z,276
2017-01-23T04:44:12.484Z,275
2017-01-23T04:45:12.630Z,276
2017-01-23T04:46:12.727Z,276
2017-01-23T04:47:13.002Z,276
2017-01-23T04:48:13.166Z,275
2017-01-23T04:49:13.269Z,276
2017-01-23T04:50:13.510Z,276
2017-01-23T04:51:13.774Z,275
2017-01-23T04:52:14.033Z,276
2017-01-23T04:53:14.191Z,276
2017-01-23T04:54:14.323Z,275
2017-01-23T04:55:14.537Z,276
2017-01-23T04:56:14.750Z,275
2017-01-23T04:57:14.952Z,275
2017-01-23T04:58:15.126Z,276
2017-01-23T04:59:15.336Z,276
2017-01-23T05:00:15.561Z,276
2017-01-23T05:01:15.725Z,276
2017-01-23T05:02:15.882Z,276
2017-01-23T05:03:16.092Z,276
2017-01-23T05:04:16.248Z,276
2017-01-23T05:05:16.362Z,276
2017-01-23T05:06:16.564Z,276
2017-01-23T05:07:16.682Z,276
2017-01-23T05:08:16.793Z,275
2017-01-23T05:09:16.941Z,276
2017-01-23T05:10:17.116Z,276
2017-01-23T05:11:17.348Z,276
2017-01-23T05:12:17.421Z,275
2017-01-23T05:13:17.682Z,275
2017-01-23T05:14:17.844Z,275
2017-01-23T05:15:18.037Z,275
2017-01-23T05:16:18.212Z,275
2017-01-23T05:17:18.348Z,276
2017-01-23T05:18:18.543Z,276
2017-01-23T05:19:18.741Z,275
2017-01-23T05:20:18.900Z,276
2017-01-23T05:21:19.098Z,276
2017-01-23T05:22:19.335Z,276
2017-01-23T05:23:19.484Z,275
2017-01-23T05:24:19.684Z,275
2017-01-23T05:25:19.893Z,276
2017-01-23T05:26:20.037Z,275
2017-01-23T05:27:20.290Z,276
2017-01-23T05:28:20.367Z,276
2017-01-23T05:29:20.548Z,276
2017-01-23T05:30:20.731Z,276
2017-01-23T05:31:20.878Z,275
2017-01-23T05:32:21.137Z,276
2017-01-23T05:33:21.312Z,276
2017-01-23T05:34:21.432Z,275
2017-01-23T05:35:21.600Z,276
2017-01-23T05:36:21.700Z,276
2017-01-23T05:37:21.793Z,276
2017-01-23T05:38:21.867Z,276
2017-01-23T05:39:21.981Z,276
2017-01-23T05:40:22.091Z,276
2017-01-23T05:41:22.215Z,275
2017-01-23T05:42:22.477Z,276
2017-01-23T05:43:22.596Z,276
2017-01-23T05:44:22.737Z,275
2017-01-23T05:45:22.879Z,275
2017-01-23T05:46:23.030Z,276
2017-01-23T05:47:23.191Z,276
2017-01-23T05:48:23.327Z,276
2017-01-23T05:49:23.553Z,276
2017-01-23T05:50:23.591Z,276
2017-01-23T05:51:23.678Z,276
2017-01-23T05:52:23.841Z,276
2017-01-23T05:53:23.972Z,276
2017-01-23T05:54:24.163Z,276
2017-01-23T05:55:24.325Z,276
2017-01-23T05:56:24.429Z,276
2017-01-23T05:57:24.693Z,276
2017-01-23T05:58:24.872Z,276
2017-01-23T05:59:25.044Z,276
2017-01-23T06:00:25.244Z,276
2017-01-23T06:01:25.494Z,276
2017-01-23T06:02:25.642Z,276
2017-01-23T06:03:25.795Z,276
2017-01-23T06:04:25.956Z,276
2017-01-23T06:05:26.081Z,276
2017-01-23T06:06:26.223Z,275
2017-01-23T06:07:26.369Z,276
2017-01-23T06:08:26.512Z,276
2017-01-23T06:09:26.711Z,276
2017-01-23T06:10:26.815Z,276
2017-01-23T06:11:26.994Z,275
2017-01-23T06:12:27.241Z,276
2017-01-23T06:13:27.350Z,276
2017-01-23T06:14:27.499Z,276
2017-01-23T06:15:27.623Z,276
2017-01-23T06:16:27.813Z,276
2017-01-23T06:17:27.968Z,276
2017-01-23T06:18:28.149Z,276
2017-01-23T06:19:28.298Z,276
2017-01-23T06:20:28.501Z,276
2017-01-23T06:21:28.638Z,276
2017-01-23T06:22:28.831Z,276
2017-01-23T06:23:29.029Z,276
2017-01-23T06:24:29.186Z,276
2017-01-23T06:25:29.356Z,276
2017-01-23T06:26:29.647Z,276
2017-01-23T06:27:29.790Z,275
2017-01-23T06:28:30.014Z,276
2017-01-23T06:29:30.164Z,276
2017-01-23T06:30:30.332Z,276
2017-01-23T06:31:30.527Z,276
2017-01-23T06:32:30.589Z,276
2017-01-23T06:33:30.763Z,276
2017-01-23T06:34:30.996Z,276
2017-01-23T06:35:31.127Z,276
2017-01-23T06:36:31.174Z,276
2017-01-23T06:37:31.370Z,276
2017-01-23T06:38:31.538Z,276
2017-01-23T06:39:31.710Z,275
2017-01-23T06:40:31.901Z,276
2017-01-23T06:41:32.078Z,276
2017-01-23T06:42:32.289Z,276
2017-01-23T06:43:32.463Z,275
2017-01-23T06:44:32.607Z,276
2017-01-23T06:45:32.723Z,276
2017-01-23T06:46:32.800Z,276
2017-01-23T06:47:32.979Z,276
2017-01-23T06:48:33.216Z,276
2017-01-23T06:49:33.323Z,276
2017-01-23T06:50:33.554Z,276
2017-01-23T06:51:33.668Z,276
2017-01-23T06:52:33.867Z,275
2017-01-23T06:53:34.081Z,276
2017-01-23T06:54:34.163Z,275
2017-01-23T06:55:34.323Z,276
2017-01-23T06:56:34.520Z,276
2017-01-23T06:57:34.736Z,276
2017-01-23T06:58:34.893Z,276
2017-01-23T06:59:35.089Z,276
2017-01-23T07:00:35.281Z,276
2017-01-23T07:01:35.393Z,276
2017-01-23T07:02:35.592Z,276
2017-01-23T07:03:35.724Z,276
2017-01-23T07:04:35.868Z,276
2017-01-23T07:05:36.015Z,276
2017-01-23T07:06:36.198Z,276
2017-01-23T07:07:36.266Z,276
2017-01-23T07:08:36.503Z,276
2017-01-23T07:09:36.627Z,276
2017-01-23T07:10:36.825Z,276
2017-01-23T07:11:37.003Z,276
2017-01-23T07:12:37.114Z,276
2017-01-23T07:13:37.428Z,276
2017-01-23T07:14:37.490Z,276
2017-01-23T07:15:37.718Z,276
2017-01-23T07:16:37.864Z,276
2017-01-23T07:17:37.969Z,276
2017-01-23T07:18:38.060Z,276
2017-01-23T07:19:38.212Z,276
2017-01-23T07:20:38.364Z,276
2017-01-23T07:21:38.521Z,276
2017-01-23T07:22:38.660Z,276
2017-01-23T07:23:38.849Z,276
2017-01-23T07:24:38.952Z,276
2017-01-23T07:25:39.119Z,276
2017-01-23T07:26:39.215Z,276
2017-01-23T07:27:39.361Z,276
2017-01-23T07:28:39.539Z,277
2017-01-23T07:29:39.622Z,275
2017-01-23T07:30:39.749Z,276
2017-01-23T07:31:39.888Z,276
2017-01-23T07:32:40.014Z,276
2017-01-23T07:33:40.179Z,276
2017-01-23T07:34:40.325Z,276
2017-01-23T07:35:40.499Z,276
2017-01-23T07:36:40.665Z,276
2017-01-23T07:37:40.881Z,276
2017-01-23T07:38:41.077Z,276
2017-01-23T07:39:41.189Z,276
2017-01-23T07:40:41.322Z,276
2017-01-23T07:41:41.459Z,276
2017-01-23T07:42:41.613Z,276
2017-01-23T07:43:41.704Z,276
2017-01-23T07:44:41.861Z,276
2017-01-23T07:45:42.054Z,276
2017-01-23T07:46:42.216Z,276
2017-01-23T07:47:42.369Z,276
2017-01-23T07:48:42.557Z,276
2017-01-23T07:49:42.608Z,276
2017-01-23T07:50:42.725Z,276
2017-01-23T07:51:42.919Z,276
2017-01-23T07:52:43.071Z,277
2017-01-23T07:53:43.176Z,276
2017-01-23T07:54:43.264Z,277
2017-01-23T07:55:43.465Z,276
2017-01-23T07:56:43.548Z,276
2017-01-23T07:57:43.675Z,276
2017-01-23T07:58:43.798Z,276
2017-01-23T07:59:43.914Z,276
2017-01-23T08:00:44.072Z,276
2017-01-23T08:01:44.206Z,276
2017-01-23T08:02:44.313Z,276
2017-01-23T08:03:44.457Z,276
2017-01-23T08:04:44.560Z,276
2017-01-23T08:05:44.756Z,276
2017-01-23T08:06:44.863Z,276
2017-01-23T08:07:45.008Z,276
2017-01-23T08:08:45.193Z,276
2017-01-23T08:09:45.415Z,275
2017-01-23T08:10:45.476Z,276
2017-01-23T08:11:45.670Z,277
2017-01-23T08:12:45.810Z,276
2017-01-23T08:13:46.019Z,277
2017-01-23T08:14:46.167Z,276
2017-01-23T08:15:46.308Z,277
2017-01-23T08:16:46.459Z,276
2017-01-23T08:17:46.572Z,277
2017-01-23T08:18:46.780Z,276
2017-01-23T08:19:46.891Z,276
2017-01-23T08:20:47.124Z,276
2017-01-23T08:21:47.266Z,277
2017-01-23T08:22:47.400Z,276
2017-01-23T08:23:47.543Z,277
2017-01-23T08:24:47.670Z,276
2017-01-23T08:25:47.789Z,276
2017-01-23T08:26:47.934Z,276
2017-01-23T08:27:48.109Z,277
2017-01-23T08:28:48.201Z,276
2017-01-23T08:29:48.273Z,277
2017-01-23T08:30:48.489Z,277
2017-01-23T08:31:48.580Z,276
2017-01-23T08:32:48.706Z,276
2017-01-23T08:33:48.822Z,276
2017-01-23T08:34:48.956Z,276
2017-01-23T08:35:49.228Z,277
2017-01-23T08:36:49.330Z,276
2017-01-23T08:37:49.491Z,276
2017-01-23T08:38:49.540Z,277
2017-01-23T08:39:49.696Z,277
2017-01-23T08:40:49.803Z,277
2017-01-23T08:41:50.096Z,276
2017-01-23T08:42:50.243Z,277
2017-01-23T08:43:50.367Z,277
2017-01-23T08:44:50.523Z,276
2017-01-23T08:45:50.753Z,276
2017-01-23T08:46:50.957Z,276
2017-01-23T08:47:51.107Z,277
2017-01-23T08:48:51.206Z,277
2017-01-23T08:49:51.357Z,276
2017-01-23T08:50:51.571Z,276
2017-01-23T08:51:51.755Z,276
2017-01-23T08:52:51.891Z,277
2017-01-23T08:53:52.035Z,276
2017-01-23T08:54:52.279Z,276
2017-01-23T08:55:53.359Z,277
2017-01-23T08:56:53.114Z,276
2017-01-23T08:57:53.237Z,277
2017-01-23T08:58:53.307Z,277
2017-01-23T08:59:53.512Z,277
2017-01-23T09:00:53.655Z,277
2017-01-23T09:01:53.808Z,277
2017-01-23T09:02:54.022Z,276
2017-01-23T09:03:54.166Z,277
2017-01-23T09:04:54.286Z,277
2017-01-23T09:05:54.369Z,276
2017-01-23T09:06:54.443Z,276
2017-01-23T09:07:54.715Z,276
2017-01-23T09:08:54.819Z,276
2017-01-23T09:09:55.055Z,275
2017-01-23T09:10:55.273Z,275
2017-01-23T09:11:55.490Z,275
2017-01-23T09:12:55.652Z,275
2017-01-23T09:13:55.785Z,275
2017-01-23T09:14:55.928Z,275
2017-01-23T09:15:56.120Z,275
2017-01-23T09:16:56.329Z,275
2017-01-23T09:17:56.413Z,275
2017-01-23T09:18:56.636Z,275
2017-01-23T09:19:56.799Z,275
2017-01-23T09:20:57.167Z,275
2017-01-23T09:21:57.383Z,275
2017-01-23T09:22:57.569Z,275
2017-01-23T09:23:58.397Z,275
2017-01-23T09:24:58.590Z,274
2017-01-23T09:25:58.731Z,275
2017-01-23T09:26:58.870Z,275
2017-01-23T09:27:59.079Z,275
2017-01-23T09:28:59.201Z,275
2017-01-23T09:29:59.366Z,274
2017-01-23T09:30:59.558Z,275
2017-01-23T09:31:59.832Z,275
2017-01-23T09:32:59.958Z,275
2017-01-23T09:34:00.109Z,274
2017-01-23T09:35:00.270Z,274
2017-01-23T09:36:00.425Z,274
2017-01-23T09:37:00.618Z,275
2017-01-23T09:38:00.744Z,274
2017-01-23T09:39:00.881Z,274
2017-01-23T09:40:01.056Z,274
2017-01-23T09:41:01.249Z,274
2017-01-23T09:42:01.393Z,274
2017-01-23T09:43:01.609Z,274
2017-01-23T09:44:01.802Z,274
2017-01-23T09:45:02.029Z,274
2017-01-23T09:46:02.272Z,274
2017-01-23T09:47:02.518Z,274
2017-01-23T09:48:02.663Z,274
2017-01-23T09:49:02.796Z,274
2017-01-23T09:50:02.923Z,274
2017-01-23T09:51:03.049Z,274
2017-01-23T09:52:03.179Z,275
2017-01-23T09:53:03.343Z,275
2017-01-23T09:54:03.408Z,275
2017-01-23T09:55:03.609Z,275
2017-01-23T09:56:03.801Z,275
2017-01-23T09:57:04.008Z,275
2017-01-23T09:58:04.219Z,275
2017-01-23T09:59:04.418Z,276
2017-01-23T10:00:04.507Z,276
2017-01-23T10:01:04.646Z,276
2017-01-23T10:02:04.828Z,275
2017-01-23T10:03:05.024Z,276
2017-01-23T10:04:05.280Z,275
2017-01-23T10:05:05.429Z,276
2017-01-23T10:06:05.523Z,276
2017-01-23T10:07:05.697Z,276
2017-01-23T10:08:05.933Z,276
2017-01-23T10:09:06.042Z,277
2017-01-23T10:10:06.136Z,277
2017-01-23T10:11:06.274Z,278
2017-01-23T10:12:06.442Z,278
2017-01-23T10:13:06.534Z,279
2017-01-23T10:14:06.740Z,278
2017-01-23T10:15:06.940Z,279
2017-01-23T10:16:07.149Z,279
2017-01-23T10:17:07.246Z,280
2017-01-23T10:18:07.358Z,281
2017-01-23T10:19:07.523Z,281
2017-01-23T10:20:07.673Z,280
2017-01-23T10:21:07.812Z,281
2017-01-23T10:22:07.977Z,281
2017-01-23T10:23:08.131Z,281
2017-01-23T10:24:08.394Z,282
2017-01-23T10:25:08.518Z,283
2017-01-23T10:26:08.695Z,283
2017-01-23T10:27:08.956Z,284
2017-01-23T10:28:09.073Z,289
2017-01-23T10:29:09.243Z,289
2017-01-23T10:30:09.431Z,290
2017-01-23T10:31:09.550Z,291
2017-01-23T10:32:09.749Z,296
2017-01-23T10:33:09.839Z,294
2017-01-23T10:34:10.010Z,290
2017-01-23T10:35:10.163Z,289
2017-01-23T10:36:10.335Z,289
2017-01-23T10:37:10.565Z,288
2017-01-23T10:38:10.761Z,291
2017-01-23T10:39:10.970Z,292
2017-01-23T10:40:11.141Z,293
2017-01-23T10:41:11.358Z,296
2017-01-23T10:42:11.419Z,303
2017-01-23T10:43:11.602Z,303
2017-01-23T10:44:11.816Z,301
2017-01-23T10:45:11.943Z,305
2017-01-23T10:46:12.071Z,311
2017-01-23T10:47:12.223Z,315
2017-01-23T10:48:12.400Z,318
2017-01-23T10:49:12.598Z,327
2017-01-23T10:50:12.913Z,334
2017-01-23T10:51:15.599Z,335
2017-01-23T10:52:15.771Z,335
2017-01-23T10:53:15.918Z,330
2017-01-23T10:54:16.031Z,333
2017-01-23T10:55:16.284Z,340
2017-01-23T10:56:16.351Z,347
2017-01-23T10:57:16.486Z,348
2017-01-23T10:58:16.758Z,338
2017-01-23T10:59:16.897Z,348
2017-01-23T11:00:17.102Z,358
2017-01-23T11:01:17.235Z,352
2017-01-23T11:02:17.501Z,352
2017-01-23T11:03:17.655Z,371
2017-01-23T11:04:17.833Z,385
2017-01-23T11:05:17.944Z,398
2017-01-23T11:06:18.125Z,402
2017-01-23T11:07:18.216Z,404
2017-01-23T11:08:18.449Z,396
2017-01-23T11:09:18.583Z,393
2017-01-23T11:10:18.841Z,391
2017-01-23T11:11:18.992Z,393
2017-01-23T11:12:19.154Z,400
2017-01-23T11:13:19.274Z,401
2017-01-23T11:14:19.590Z,404
2017-01-23T11:15:19.751Z,412
2017-01-23T11:16:19.913Z,422
2017-01-23T11:17:20.008Z,431
2017-01-23T11:18:20.159Z,445
2017-01-23T11:19:20.287Z,453
2017-01-23T11:20:20.452Z,461
2017-01-23T11:21:20.645Z,466
2017-01-23T11:22:20.865Z,471
2017-01-23T11:23:21.137Z,472
2017-01-23T11:24:21.308Z,472
2017-01-23T11:25:21.424Z,475
2017-01-23T11:26:21.630Z,475
2017-01-23T11:27:21.814Z,477
2017-01-23T11:28:21.931Z,474
2017-01-23T11:29:22.042Z,470
2017-01-23T11:30:22.220Z,468
2017-01-23T11:31:22.395Z,467
2017-01-23T11:32:22.453Z,467
2017-01-23T11:33:22.593Z,465
2017-01-23T11:34:22.708Z,468
2017-01-23T11:35:22.868Z,467
2017-01-23T11:36:23.013Z,464
2017-01-23T11:37:23.178Z,461
2017-01-23T11:38:23.324Z,462
2017-01-23T11:39:23.524Z,456
2017-01-23T11:40:23.712Z,455
2017-01-23T11:41:23.859Z,456
2017-01-23T11:42:24.087Z,455
2017-01-23T11:43:24.255Z,453
2017-01-23T11:44:24.425Z,455
2017-01-23T11:45:24.610Z,458
2017-01-23T11:46:24.794Z,457
2017-01-23T11:47:24.867Z,454
2017-01-23T11:48:24.991Z,451
2017-01-23T11:49:25.160Z,450
2017-01-23T11:50:25.301Z,447
2017-01-23T11:51:25.467Z,445
2017-01-23T11:52:25.642Z,445
2017-01-23T11:53:25.773Z,442
2017-01-23T11:54:25.940Z,436
2017-01-23T11:55:25.984Z,436
2017-01-23T11:56:26.225Z,431
2017-01-23T11:57:26.399Z,425
2017-01-23T11:58:26.593Z,421
2017-01-23T11:59:26.775Z,417
2017-01-23T12:00:26.988Z,413
2017-01-23T12:01:27.200Z,417
2017-01-23T12:02:27.276Z,416
2017-01-23T12:03:27.450Z,451
2017-01-23T12:04:27.561Z,472
2017-01-23T12:05:27.792Z,459
2017-01-23T12:06:27.859Z,460
2017-01-23T12:07:27.984Z,488
2017-01-23T12:08:28.105Z,490
2017-01-23T12:09:28.274Z,506
2017-01-23T12:10:28.410Z,509
2017-01-23T12:11:28.580Z,473
2017-01-23T12:12:28.645Z,508
2017-01-23T12:13:28.751Z,512
2017-01-23T12:14:28.900Z,526
2017-01-23T12:15:29.099Z,503
2017-01-23T12:16:29.317Z,523
2017-01-23T12:17:29.474Z,532
2017-01-23T12:18:29.662Z,508
2017-01-23T12:19:29.786Z,521
2017-01-23T12:20:30.040Z,552
2017-01-23T12:21:30.176Z,574
2017-01-23T12:22:30.389Z,594
2017-01-23T12:23:30.586Z,612
2017-01-23T12:24:30.692Z,624
2017-01-23T12:25:30.793Z,625
2017-01-23T12:26:30.889Z,631
2017-01-23T12:27:31.006Z,629
2017-01-23T12:28:31.164Z,631
2017-01-23T12:29:31.388Z,630
2017-01-23T12:30:31.635Z,625
2017-01-23T12:31:31.920Z,620
2017-01-23T12:32:32.145Z,618
2017-01-23T12:33:32.303Z,615
2017-01-23T12:34:32.517Z,605
2017-01-23T12:35:32.652Z,598
2017-01-23T12:36:32.764Z,595
2017-01-23T12:37:32.934Z,597
2017-01-23T12:38:33.067Z,594
2017-01-23T12:39:33.308Z,591
2017-01-23T12:40:33.432Z,588
2017-01-23T12:41:33.656Z,579
2017-01-23T12:42:33.739Z,575
2017-01-23T12:43:33.873Z,573
2017-01-23T12:44:33.965Z,565
2017-01-23T12:45:34.144Z,572
2017-01-23T12:46:34.317Z,578
2017-01-23T12:47:34.507Z,573
2017-01-23T12:48:34.643Z,570
2017-01-23T12:49:34.763Z,572
2017-01-23T12:50:34.952Z,568
2017-01-23T12:51:35.022Z,573
2017-01-23T12:52:35.321Z,566
2017-01-23T12:53:35.486Z,557
2017-01-23T12:54:35.546Z,560
2017-01-23T12:55:35.686Z,553
2017-01-23T12:56:35.851Z,557
2017-01-23T12:57:36.145Z,554
2017-01-23T12:58:36.356Z,551
2017-01-23T12:59:36.498Z,547
2017-01-23T13:00:36.604Z,544
2017-01-23T13:01:36.748Z,552
2017-01-23T13:02:36.915Z,557
2017-01-23T13:03:37.184Z,562
2017-01-23T13:04:37.292Z,552
2017-01-23T13:05:37.478Z,548
2017-01-23T13:06:37.661Z,548
2017-01-23T13:07:37.830Z,546
2017-01-23T13:08:37.983Z,546
2017-01-23T13:09:38.218Z,544
2017-01-23T13:10:38.327Z,542
2017-01-23T13:11:38.468Z,543
2017-01-23T13:12:38.592Z,541
2017-01-23T13:13:38.725Z,541
2017-01-23T13:14:38.835Z,537
2017-01-23T13:15:39.108Z,534
2017-01-23T13:16:39.330Z,514
2017-01-23T13:17:39.486Z,483
2017-01-23T13:18:39.713Z,429
2017-01-23T13:19:39.917Z,351
2017-01-23T13:20:40.149Z,334
2017-01-23T13:21:40.260Z,311
2017-01-23T13:22:40.517Z,300
2017-01-23T13:23:40.727Z,283
2017-01-23T13:24:40.836Z,274
2017-01-23T13:25:40.967Z,274
2017-01-23T13:26:41.215Z,273
2017-01-23T13:27:41.308Z,273
2017-01-23T13:28:41.523Z,273
2017-01-23T13:29:41.701Z,272
2017-01-23T13:30:41.798Z,272
2017-01-23T13:31:42.045Z,272
2017-01-23T13:32:42.090Z,272
2017-01-23T13:33:42.236Z,272
2017-01-23T13:34:42.344Z,272
2017-01-23T13:35:42.496Z,272
2017-01-23T13:36:42.659Z,273
2017-01-23T13:37:42.807Z,273
2017-01-23T13:38:42.933Z,273
2017-01-23T13:39:43.153Z,272
2017-01-23T13:40:43.331Z,272
2017-01-23T13:41:43.489Z,273
2017-01-23T13:42:43.629Z,272
2017-01-23T13:43:43.853Z,273
2017-01-23T13:44:43.944Z,272
2017-01-23T13:45:44.043Z,272
2017-01-23T13:46:44.253Z,272
2017-01-23T13:47:44.368Z,272
2017-01-23T13:48:44.522Z,272